createdAt,value
2022-12-15T00:02:25.546Z,26.08
2022-12-15T00:05:11.778Z,29.50
2022-12-15T00:07:57.929Z,33.88
2022-12-15T00:10:43.985Z,25.25
2022-12-15T00:13:31.386Z,27.67
2022-12-15T00:16:17.851Z,35.65
2022-12-15T00:19:05.006Z,34.78
2022-12-15T00:21:51.315Z,30.60
2022-12-15T00:24:40.448Z,24.13
2022-12-15T00:27:27.672Z,25.63
2022-12-15T00:30:13.800Z,28.88
2022-12-15T00:32:59.943Z,31.75
2022-12-15T00:35:45.966Z,31.23
2022-12-15T00:38:33.116Z,30.40
2022-12-15T00:41:05.548Z,33.28
2022-12-15T00:43:34.105Z,32.42
2022-12-15T00:46:20.761Z,29.60
2022-12-15T00:48:48.305Z,35.78
2022-12-15T00:51:16.040Z,20.20
2022-12-15T00:54:02.151Z,32.53
2022-12-15T00:56:47.863Z,33.72
2022-12-15T00:59:34.704Z,32.88
2022-12-15T01:02:21.522Z,33.40
2022-12-15T01:05:07.807Z,37.53
2022-12-15T01:07:53.597Z,30.00
2022-12-15T01:10:39.822Z,45.53
2022-12-15T01:13:25.638Z,28.33
2022-12-15T01:16:11.641Z,36.25
2022-12-15T01:18:57.515Z,36.55
2022-12-15T01:21:25.865Z,32.22
2022-12-15T01:23:53.781Z,38.67
2022-12-15T01:26:21.440Z,33.80
2022-12-15T01:28:48.783Z,36.55
2022-12-15T01:31:16.073Z,30.90
2022-12-15T01:33:43.913Z,39.85
2022-12-15T01:36:11.495Z,29.65
2022-12-15T01:38:38.732Z,26.45
2022-12-15T01:41:06.886Z,35.17
2022-12-15T01:43:35.749Z,37.90
2022-12-15T01:46:09.329Z,36.78
2022-12-15T01:48:39.641Z,39.05
2022-12-15T01:51:15.778Z,38.05
2022-12-15T01:54:03.660Z,31.70
2022-12-15T01:56:37.361Z,40.25
2022-12-15T01:59:05.670Z,35.97
2022-12-15T02:01:33.183Z,39.28
2022-12-15T02:04:00.487Z,43.85
2022-12-15T02:06:29.310Z,40.40
2022-12-15T02:08:58.139Z,26.17
2022-12-15T02:11:37.585Z,38.38
2022-12-15T02:14:09.387Z,38.53
2022-12-15T02:17:09.027Z,33.53
2022-12-15T02:19:48.345Z,40.00
2022-12-15T02:22:19.899Z,41.28
2022-12-15T02:24:53.219Z,38.67
2022-12-15T02:27:25.462Z,35.30
2022-12-15T02:29:52.723Z,33.45
2022-12-15T02:32:25.944Z,42.40
2022-12-15T02:34:59.688Z,32.25
2022-12-15T02:37:34.462Z,35.00
2022-12-15T02:40:02.148Z,39.95
2022-12-15T02:42:30.686Z,37.65
2022-12-15T02:45:04.207Z,42.65
2022-12-15T02:47:34.570Z,43.45
2022-12-15T02:50:04.802Z,33.75
2022-12-15T02:52:50.874Z,36.13
2022-12-15T02:55:21.711Z,32.30
2022-12-15T02:57:51.760Z,38.60
2022-12-15T03:00:19.746Z,36.60
2022-12-15T03:02:50.837Z,39.80
2022-12-15T03:05:19.267Z,46.05
2022-12-15T03:07:49.754Z,39.88
2022-12-15T03:10:17.185Z,36.88
2022-12-15T03:12:45.212Z,41.25
2022-12-15T03:15:12.735Z,38.05
2022-12-15T03:17:40.280Z,39.22
2022-12-15T03:20:08.898Z,38.17
2022-12-15T03:22:36.762Z,37.58
2022-12-15T03:25:04.511Z,39.72
2022-12-15T03:27:31.860Z,34.13
2022-12-15T03:29:59.225Z,32.83
2022-12-15T03:32:26.481Z,38.65
2022-12-15T03:34:53.707Z,35.00
2022-12-15T03:37:21.033Z,38.40
2022-12-15T03:39:48.350Z,34.90
2022-12-15T03:42:35.557Z,38.00
2022-12-15T03:45:04.085Z,32.55
2022-12-15T03:47:32.163Z,32.58
2022-12-15T03:49:59.479Z,24.70
2022-12-15T03:52:26.765Z,29.90
2022-12-15T03:54:53.985Z,34.00
2022-12-15T03:57:21.284Z,34.45
2022-12-15T03:59:48.527Z,32.28
2022-12-15T04:02:15.886Z,29.27
2022-12-15T04:04:43.542Z,26.75
2022-12-15T04:07:10.844Z,31.17
2022-12-15T04:09:38.410Z,31.90
2022-12-15T04:12:05.839Z,29.80
2022-12-15T04:14:33.223Z,36.83
2022-12-15T04:17:00.536Z,29.58
2022-12-15T04:19:46.374Z,32.30
2022-12-15T04:22:17.757Z,36.10
2022-12-15T04:25:03.793Z,34.50
2022-12-15T04:27:49.891Z,33.75
2022-12-15T04:30:35.834Z,29.77
2022-12-15T04:33:26.317Z,32.47
2022-12-15T04:36:15.119Z,29.52
2022-12-15T04:39:01.261Z,34.75
2022-12-15T04:41:47.326Z,28.67
2022-12-15T04:44:33.442Z,22.77
2022-12-15T04:47:19.270Z,27.92
2022-12-15T04:50:05.304Z,35.85
2022-12-15T04:52:51.411Z,29.63
2022-12-15T04:55:37.551Z,29.27
2022-12-15T04:58:24.363Z,32.08
2022-12-15T05:01:10.450Z,26.63
2022-12-15T05:03:56.470Z,32.22
2022-12-15T05:06:42.512Z,25.77
2022-12-15T05:09:28.361Z,34.85
2022-12-15T05:12:14.446Z,35.03
2022-12-15T05:15:00.685Z,37.55
2022-12-15T05:17:47.014Z,29.63
2022-12-15T05:20:33.005Z,25.23
2022-12-15T05:23:19.195Z,30.52
2022-12-15T05:26:05.172Z,26.33
2022-12-15T05:28:51.357Z,27.33
2022-12-15T05:31:37.537Z,30.25
2022-12-15T05:34:05.921Z,30.65
2022-12-15T05:36:33.492Z,24.80
2022-12-15T05:39:00.760Z,28.63
2022-12-15T05:41:27.992Z,31.65
2022-12-15T05:43:55.276Z,32.00
2022-12-15T05:46:22.613Z,32.80
2022-12-15T05:48:49.972Z,33.47
2022-12-15T05:51:17.273Z,29.85
2022-12-15T05:53:44.532Z,25.60
2022-12-15T05:56:13.360Z,31.95
2022-12-15T05:58:45.072Z,31.25
2022-12-15T06:01:14.205Z,24.30
2022-12-15T06:03:41.740Z,29.98
2022-12-15T06:06:09.610Z,33.00
2022-12-15T06:08:37.861Z,30.65
2022-12-15T06:11:05.256Z,31.27
2022-12-15T06:13:36.616Z,29.00
2022-12-15T06:16:05.550Z,26.58
2022-12-15T06:18:34.061Z,32.75
2022-12-15T06:21:02.453Z,28.15
2022-12-15T06:23:30.114Z,32.50
2022-12-15T06:25:57.848Z,36.75
2022-12-15T06:28:25.160Z,28.52
2022-12-15T06:30:56.684Z,33.90
2022-12-15T06:33:24.131Z,29.63
2022-12-15T06:35:51.448Z,32.28
2022-12-15T06:38:18.688Z,31.38
2022-12-15T06:40:46.447Z,36.45
2022-12-15T06:43:13.671Z,28.30
2022-12-15T06:45:40.996Z,26.98
2022-12-15T06:48:08.256Z,27.75
2022-12-15T06:50:35.653Z,33.22
2022-12-15T06:53:02.939Z,34.05
2022-12-15T06:55:30.212Z,33.35
2022-12-15T06:57:57.503Z,31.92
2022-12-15T07:00:25.121Z,24.67
2022-12-15T07:02:52.497Z,25.60
2022-12-15T07:05:20.056Z,32.00
2022-12-15T07:07:47.311Z,36.80
2022-12-15T07:10:14.606Z,33.17
2022-12-15T07:12:41.858Z,30.73
2022-12-15T07:15:09.288Z,32.92
2022-12-15T07:17:37.090Z,33.83
2022-12-15T07:20:05.302Z,27.92
2022-12-15T07:22:32.534Z,35.95
2022-12-15T07:24:59.788Z,37.92
2022-12-15T07:27:27.177Z,28.55
2022-12-15T07:29:54.450Z,35.13
2022-12-15T07:32:21.802Z,31.75
2022-12-15T07:34:49.388Z,38.28
2022-12-15T07:37:17.143Z,31.20
2022-12-15T07:39:44.786Z,29.75
2022-12-15T07:42:12.167Z,36.13
2022-12-15T07:44:39.519Z,36.83
2022-12-15T07:47:06.758Z,36.80
2022-12-15T07:49:34.350Z,43.28
2022-12-15T07:52:01.609Z,35.08
2022-12-15T07:54:29.328Z,38.78
2022-12-15T07:56:56.566Z,33.88
2022-12-15T07:59:23.799Z,31.38
2022-12-15T08:01:51.413Z,36.42
2022-12-15T08:04:18.955Z,38.20
2022-12-15T08:06:46.210Z,33.97
2022-12-15T08:09:13.467Z,30.10
2022-12-15T08:11:40.730Z,25.30
2022-12-15T08:14:15.091Z,30.27
2022-12-15T08:16:45.452Z,26.13
2022-12-15T08:19:13.817Z,27.88
2022-12-15T08:21:42.168Z,22.55
2022-12-15T08:24:10.198Z,21.10
2022-12-15T08:26:40.670Z,27.98
2022-12-15T08:31:55.913Z,20.50
2022-12-15T08:34:23.330Z,23.45
2022-12-15T08:36:50.633Z,24.52
2022-12-15T08:39:17.945Z,26.67
2022-12-15T08:41:45.443Z,22.95
2022-12-15T08:44:12.756Z,21.58
2022-12-15T08:46:40.072Z,22.05
2022-12-15T08:49:08.764Z,21.88
2022-12-15T08:51:36.021Z,20.65
2022-12-15T08:54:03.406Z,24.00
2022-12-15T08:56:30.934Z,25.90
2022-12-15T08:59:01.588Z,24.05
2022-12-15T09:01:30.106Z,21.60
2022-12-15T09:03:58.095Z,24.30
2022-12-15T09:06:29.572Z,20.98
2022-12-15T09:08:57.851Z,22.27
2022-12-15T09:11:25.837Z,23.88
2022-12-15T09:13:53.207Z,23.02
2022-12-15T09:16:20.719Z,20.23
2022-12-15T09:18:51.650Z,20.85
2022-12-15T09:21:22.328Z,19.88
2022-12-15T09:23:51.998Z,23.02
2022-12-15T09:26:20.426Z,21.38
2022-12-15T09:28:50.633Z,20.55
2022-12-15T09:31:19.282Z,21.77
2022-12-15T09:33:47.215Z,17.80
2022-12-15T09:36:14.554Z,20.42
2022-12-15T09:38:42.631Z,18.77
2022-12-15T09:41:15.715Z,18.60
2022-12-15T09:43:52.314Z,21.00
2022-12-15T09:46:38.720Z,21.65
2022-12-15T09:49:12.088Z,19.58
2022-12-15T09:51:42.304Z,21.20
2022-12-15T09:54:11.319Z,18.73
2022-12-15T09:56:43.242Z,21.52
2022-12-15T09:59:25.413Z,19.73
2022-12-15T10:02:13.072Z,21.00
2022-12-15T10:04:58.536Z,20.95
2022-12-15T10:07:32.854Z,19.88
2022-12-15T10:10:00.155Z,19.90
2022-12-15T10:12:31.223Z,23.13
2022-12-15T10:15:09.281Z,21.95
2022-12-15T10:17:46.184Z,21.67
2022-12-15T10:20:29.244Z,20.60
2022-12-15T10:22:58.265Z,19.92
2022-12-15T10:25:30.331Z,19.00
2022-12-15T10:28:04.102Z,21.02
2022-12-15T10:30:31.464Z,18.00
2022-12-15T10:33:12.510Z,24.27
2022-12-15T10:38:31.801Z,23.17
2022-12-15T10:41:09.360Z,22.88
2022-12-15T10:43:38.235Z,25.90
2022-12-15T10:46:19.254Z,22.80
2022-12-15T10:51:37.229Z,27.73
2022-12-15T10:54:10.671Z,28.98
2022-12-15T10:56:51.922Z,32.03
2022-12-15T10:59:23.686Z,27.48
2022-12-15T11:01:51.480Z,26.73
2022-12-15T11:04:34.505Z,25.92
2022-12-15T11:07:03.891Z,29.67
2022-12-15T11:09:35.432Z,25.08
2022-12-15T11:12:21.656Z,25.25
2022-12-15T11:14:50.942Z,22.95
2022-12-15T11:17:19.874Z,22.50
2022-12-15T11:19:47.132Z,23.75
2022-12-15T11:22:32.438Z,24.83
2022-12-15T11:25:19.941Z,25.23
2022-12-15T11:27:48.083Z,21.38
2022-12-15T11:30:15.977Z,26.05
2022-12-15T11:32:53.257Z,29.83
2022-12-15T11:35:28.485Z,23.95
2022-12-15T11:38:01.666Z,30.10
2022-12-15T11:40:41.951Z,29.92
2022-12-15T11:43:12.313Z,27.42
2022-12-15T11:45:39.521Z,28.35
2022-12-15T11:48:13.998Z,25.08
2022-12-15T11:50:54.239Z,30.20
2022-12-15T11:53:33.496Z,20.95
2022-12-15T11:56:01.079Z,29.23
2022-12-15T11:59:00.606Z,27.48
2022-12-15T12:01:36.787Z,28.17
2022-12-15T12:04:19.541Z,26.58
2022-12-15T12:07:01.321Z,29.92
2022-12-15T12:09:39.239Z,30.92
2022-12-15T12:12:45.232Z,30.58
2022-12-15T12:15:15.484Z,33.25
2022-12-15T12:17:42.717Z,30.45
2022-12-15T12:20:15.451Z,28.45
2022-12-15T12:22:45.401Z,27.40
2022-12-15T12:25:15.622Z,28.48
2022-12-15T12:28:01.610Z,27.95
2022-12-15T12:30:32.839Z,30.55
2022-12-15T12:33:02.919Z,33.47
2022-12-15T12:35:49.033Z,31.80
2022-12-15T12:38:20.335Z,36.20
2022-12-15T12:41:03.030Z,28.52
2022-12-15T12:43:35.288Z,31.65
2022-12-15T12:46:05.305Z,33.90
2022-12-15T12:48:37.865Z,30.10
2022-12-15T12:51:25.601Z,31.90
2022-12-15T12:53:53.281Z,33.42
2022-12-15T12:56:40.860Z,32.88
2022-12-15T12:59:26.891Z,32.28
2022-12-15T13:01:55.326Z,30.75
2022-12-15T13:04:43.043Z,39.90
2022-12-15T13:07:29.620Z,34.75
2022-12-15T13:10:09.099Z,43.70
2022-12-15T13:12:53.963Z,42.28
2022-12-15T13:15:30.562Z,28.83
2022-12-15T13:18:09.053Z,26.73
2022-12-15T13:20:37.774Z,32.15
2022-12-15T13:23:20.126Z,38.47
2022-12-15T13:26:07.935Z,34.60
2022-12-15T13:28:40.795Z,32.03
2022-12-15T13:31:17.356Z,28.95
2022-12-15T13:33:45.798Z,32.55
2022-12-15T13:36:34.687Z,30.52
2022-12-15T13:39:01.926Z,34.15
2022-12-15T13:41:29.238Z,31.20
2022-12-15T13:43:58.145Z,27.65
2022-12-15T13:46:29.872Z,29.63
2022-12-15T13:49:15.014Z,32.22
2022-12-15T13:51:51.630Z,33.47
2022-12-15T13:54:27.039Z,30.67
2022-12-15T13:56:54.343Z,32.63
2022-12-15T13:59:40.544Z,34.70
2022-12-15T14:02:26.236Z,32.17
2022-12-15T14:05:12.321Z,34.85
2022-12-15T14:07:40.047Z,37.60
2022-12-15T14:10:14.424Z,38.63
2022-12-15T14:12:41.729Z,36.70
2022-12-15T14:15:16.026Z,37.70
2022-12-15T14:17:47.054Z,28.83
2022-12-15T14:20:24.314Z,38.03
2022-12-15T14:22:52.612Z,38.17
2022-12-15T14:25:24.168Z,43.55
2022-12-15T14:27:51.473Z,43.35
2022-12-15T14:30:19.209Z,49.33
2022-12-15T14:32:48.599Z,43.78
2022-12-15T14:35:26.636Z,46.53
2022-12-15T14:37:56.445Z,46.25
2022-12-15T14:40:28.423Z,45.13
2022-12-15T14:42:56.342Z,45.28
2022-12-15T14:45:27.997Z,45.90
2022-12-15T14:48:39.061Z,40.95
2022-12-15T14:50:48.693Z,42.50
2022-12-15T14:53:18.561Z,39.65
2022-12-15T14:55:46.446Z,32.53
2022-12-15T14:58:25.892Z,43.10
2022-12-15T15:00:54.368Z,39.15
2022-12-15T15:03:25.472Z,41.10
2022-12-15T15:05:53.222Z,36.38
2022-12-15T15:08:25.966Z,42.35
2022-12-15T15:10:54.303Z,45.90
2022-12-15T15:13:23.907Z,49.95
2022-12-15T15:16:05.136Z,50.73
2022-12-15T15:18:32.717Z,44.70
2022-12-15T15:21:05.365Z,51.83
2022-12-15T15:23:32.617Z,47.30
2022-12-15T15:26:06.009Z,43.75
2022-12-15T15:28:37.542Z,43.42
2022-12-15T15:31:24.917Z,37.85
2022-12-15T15:33:53.050Z,46.63
2022-12-15T15:36:20.521Z,40.50
2022-12-15T15:38:47.879Z,41.85
2022-12-15T15:41:15.094Z,37.05
2022-12-15T15:43:42.684Z,43.20
2022-12-15T15:46:18.465Z,36.42
2022-12-15T15:48:47.453Z,44.22
2022-12-15T15:51:14.705Z,43.58
2022-12-15T15:53:42.129Z,41.95
2022-12-15T15:56:11.374Z,43.35
2022-12-15T15:58:38.980Z,40.92
2022-12-15T16:01:12.767Z,40.05
2022-12-15T16:03:40.946Z,41.67
2022-12-15T16:06:15.479Z,48.38
2022-12-15T16:08:43.422Z,42.88
2022-12-15T16:11:13.936Z,36.92
2022-12-15T16:16:15.884Z,42.25
2022-12-15T16:18:43.208Z,42.40
2022-12-15T16:21:14.077Z,51.55
2022-12-15T16:23:42.168Z,46.83
2022-12-15T16:26:13.738Z,50.17
2022-12-15T16:28:41.060Z,44.10
2022-12-15T16:31:28.429Z,41.03
2022-12-15T16:33:55.801Z,44.67
2022-12-15T16:36:23.147Z,45.47
2022-12-15T16:38:50.729Z,45.30
2022-12-15T16:41:18.522Z,49.00
2022-12-15T16:43:48.110Z,53.78
2022-12-15T16:46:15.860Z,49.50
2022-12-15T16:48:43.541Z,46.72
2022-12-15T16:51:19.101Z,50.25
2022-12-15T16:53:46.485Z,37.42
2022-12-15T16:56:15.901Z,47.60
2022-12-15T16:58:48.508Z,50.85
2022-12-15T17:01:16.137Z,53.13
2022-12-15T17:03:45.995Z,46.72
2022-12-15T17:06:14.765Z,45.00
2022-12-15T17:08:47.059Z,51.90
2022-12-15T17:11:21.893Z,46.97
2022-12-15T17:13:51.344Z,40.55
2022-12-15T17:16:23.113Z,44.85
2022-12-15T17:18:50.568Z,50.13
2022-12-15T17:21:20.353Z,45.67
2022-12-15T17:23:50.013Z,47.95
2022-12-15T17:26:29.125Z,54.80
2022-12-15T17:28:58.333Z,49.42
2022-12-15T17:31:31.522Z,49.85
2022-12-15T17:34:02.718Z,57.90
2022-12-15T17:36:30.166Z,46.22
2022-12-15T17:38:58.760Z,40.83
2022-12-15T17:41:57.935Z,45.58
2022-12-15T17:44:34.750Z,38.88
2022-12-15T17:47:03.151Z,53.45
2022-12-15T17:49:35.578Z,42.47
2022-12-15T17:52:05.655Z,53.45
2022-12-15T17:54:34.329Z,50.28
2022-12-15T17:57:01.625Z,51.25
2022-12-15T17:59:28.894Z,49.92
2022-12-15T18:01:57.439Z,51.80
2022-12-15T18:04:24.906Z,47.55
2022-12-15T18:07:02.000Z,47.60
2022-12-15T18:09:30.041Z,43.97
2022-12-15T18:11:57.618Z,49.65
2022-12-15T18:14:24.946Z,51.13
2022-12-15T18:16:52.364Z,48.42
2022-12-15T18:19:20.291Z,53.70
2022-12-15T18:21:47.557Z,47.90
2022-12-15T18:24:17.060Z,52.67
2022-12-15T18:26:44.750Z,50.67
2022-12-15T18:29:17.839Z,40.75
2022-12-15T18:31:46.973Z,52.70
2022-12-15T18:34:15.280Z,51.92
2022-12-15T18:36:43.071Z,49.47
2022-12-15T18:39:18.717Z,50.08
2022-12-15T18:41:46.383Z,47.88
2022-12-15T18:44:22.925Z,53.28
2022-12-15T18:46:50.271Z,45.95
2022-12-15T18:49:18.309Z,49.88
2022-12-15T18:51:46.517Z,52.40
2022-12-15T18:54:20.734Z,48.25
2022-12-15T18:56:48.238Z,48.05
2022-12-15T18:59:17.321Z,45.13
2022-12-15T19:01:45.952Z,51.53
2022-12-15T19:04:13.666Z,49.42
2022-12-15T19:06:41.184Z,61.95
2022-12-15T19:09:16.316Z,52.42
2022-12-15T19:12:04.533Z,50.75
2022-12-15T19:14:40.689Z,52.58
2022-12-15T19:17:29.244Z,56.55
2022-12-15T19:20:15.332Z,51.00
2022-12-15T19:22:43.003Z,52.63
2022-12-15T19:25:18.231Z,55.30
2022-12-15T19:27:48.153Z,53.75
2022-12-15T19:30:16.679Z,51.13
2022-12-15T19:32:43.988Z,54.33
2022-12-15T19:35:12.120Z,55.70
2022-12-15T19:37:42.672Z,56.35
2022-12-15T19:42:37.829Z,36.90
2022-12-15T19:45:16.186Z,51.35
2022-12-15T19:47:43.557Z,47.40
2022-12-15T19:50:15.023Z,56.28
2022-12-15T19:52:42.929Z,52.05
2022-12-15T19:55:17.080Z,62.40
2022-12-15T19:57:44.922Z,51.28
2022-12-15T20:00:21.737Z,58.28
2022-12-15T20:02:51.877Z,53.22
2022-12-15T20:05:20.020Z,58.22
2022-12-15T20:07:48.010Z,57.72
2022-12-15T20:10:24.440Z,51.58
2022-12-15T20:12:55.154Z,58.42
2022-12-15T20:15:23.814Z,58.25
2022-12-15T20:17:56.106Z,57.63
2022-12-15T20:20:24.250Z,55.97
2022-12-15T20:22:53.877Z,63.22
2022-12-15T20:25:29.599Z,57.60
2022-12-15T20:27:57.494Z,55.85
2022-12-15T20:30:26.231Z,57.75
2022-12-15T20:32:53.782Z,56.15
2022-12-15T20:35:21.907Z,56.17
2022-12-15T20:37:50.025Z,59.70
2022-12-15T20:40:17.316Z,58.17
2022-12-15T20:42:44.938Z,59.13
2022-12-15T20:45:16.661Z,59.25
2022-12-15T20:47:45.822Z,63.30
2022-12-15T20:50:24.564Z,57.95
2022-12-15T20:52:51.851Z,51.42
2022-12-15T20:55:21.355Z,57.85
2022-12-15T20:57:48.736Z,64.35
2022-12-15T21:00:17.957Z,59.03
2022-12-15T21:02:45.905Z,56.53
2022-12-15T21:05:17.838Z,53.38
2022-12-15T21:07:45.606Z,58.22
2022-12-15T21:10:14.169Z,55.55
2022-12-15T21:12:42.036Z,51.85
2022-12-15T21:15:19.606Z,58.53
2022-12-15T21:17:51.056Z,61.40
2022-12-15T21:20:24.430Z,61.47
2022-12-15T21:22:51.694Z,55.50
2022-12-15T21:25:26.913Z,60.13
2022-12-15T21:27:54.136Z,58.72
2022-12-15T21:30:23.166Z,60.67
2022-12-15T21:32:53.503Z,62.33
2022-12-15T21:35:21.039Z,64.57
2022-12-15T21:37:51.739Z,63.20
2022-12-15T21:40:28.775Z,59.78
2022-12-15T21:42:56.437Z,51.83
2022-12-15T21:45:25.014Z,60.72
2022-12-15T21:48:11.592Z,59.70
2022-12-15T21:50:39.653Z,59.10
2022-12-15T21:53:07.291Z,61.25
2022-12-15T21:55:35.105Z,58.08
2022-12-15T21:58:02.345Z,60.72
2022-12-15T22:00:29.610Z,64.10
2022-12-15T22:02:56.949Z,65.25
2022-12-15T22:05:25.780Z,65.03
2022-12-15T22:07:53.030Z,65.43
2022-12-15T22:10:22.012Z,61.60
2022-12-15T22:15:38.920Z,62.47
2022-12-15T22:18:11.702Z,65.07
2022-12-15T22:20:39.031Z,60.10
2022-12-15T22:23:06.289Z,62.40
2022-12-15T22:25:33.537Z,63.35
2022-12-15T22:28:01.113Z,67.15
2022-12-15T22:30:28.468Z,56.47
2022-12-15T22:32:55.734Z,57.35
2022-12-15T22:35:24.648Z,62.20
2022-12-15T22:37:56.492Z,57.10
2022-12-15T22:40:24.445Z,56.92
2022-12-15T22:42:57.215Z,61.20
2022-12-15T22:45:24.850Z,56.80
2022-12-15T22:47:53.000Z,71.03
2022-12-15T22:50:24.076Z,65.05
2022-12-15T22:52:52.001Z,67.90
2022-12-15T22:55:21.167Z,58.58
2022-12-15T22:57:59.170Z,47.60
2022-12-15T23:00:26.415Z,58.38
2022-12-15T23:02:53.843Z,64.22
2022-12-15T23:05:21.408Z,58.45
2022-12-15T23:07:48.684Z,60.50
2022-12-15T23:10:36.065Z,62.05
2022-12-15T23:13:03.387Z,67.70
2022-12-15T23:15:51.784Z,72.18
2022-12-15T23:18:19.354Z,58.83
2022-12-15T23:20:46.614Z,73.00
2022-12-15T23:23:13.986Z,72.50
2022-12-15T23:25:41.285Z,73.65
2022-12-15T23:28:08.818Z,68.05
2022-12-15T23:30:36.150Z,72.28
2022-12-15T23:33:03.408Z,62.47
2022-12-15T23:35:30.638Z,70.93
2022-12-15T23:37:58.294Z,78.07
2022-12-15T23:40:25.567Z,73.72
2022-12-15T23:42:53.774Z,81.50
2022-12-15T23:45:21.493Z,74.57
2022-12-15T23:47:48.773Z,92.78
2022-12-15T23:50:16.072Z,66.80
2022-12-15T23:52:43.287Z,82.55
2022-12-15T23:55:10.618Z,86.03
2022-12-15T23:57:40.701Z,78.00
